Time,TemperatureF,DewpointF,PressureIn,WindDirection,WindDirectionDegrees,WindSpeedMPH,WindSpeedGustMPH,Humidity,HourlyPrecipIn,Conditions,Clouds,dailyrainin,SoftwareType,DateUTC
2013-12-28 00:00:00,24.6,17.5,30.37,West,270,0.0,0.0,74,0.00,,,0.00,pywws,2013-12-28 05:00:00,
2013-12-28 00:05:00,24.6,17.5,30.37,West,270,0.0,0.0,74,0.00,,,0.00,pywws,2013-12-28 05:05:00,
2013-12-28 00:10:00,24.6,17.5,30.37,West,270,0.0,0.0,74,0.00,,,0.00,pywws,2013-12-28 05:10:00,
2013-12-28 00:15:00,24.6,17.5,30.37,West,270,0.0,0.0,74,0.00,,,0.00,pywws,2013-12-28 05:15:00,
2013-12-28 00:20:00,24.4,17.4,30.37,West,270,0.0,0.0,74,0.00,,,0.00,pywws,2013-12-28 05:20:00,
2013-12-28 00:25:00,24.4,17.7,30.37,West,270,0.0,0.0,75,0.00,,,0.00,pywws,2013-12-28 05:25:00,
2013-12-28 00:30:00,24.1,17.3,30.37,West,270,0.0,0.0,75,0.00,,,0.00,pywws,2013-12-28 05:30:00,
2013-12-28 00:35:00,24.1,17.3,30.37,West,270,0.0,0.0,75,0.00,,,0.00,pywws,2013-12-28 05:35:00,
2013-12-28 00:40:00,23.9,17.2,30.36,South,180,0.0,0.0,75,0.00,,,0.00,pywws,2013-12-28 05:40:00,
2013-12-28 00:45:00,24.1,17.3,30.37,SW,225,1.6,2.2,75,0.00,,,0.00,pywws,2013-12-28 05:45:00,
2013-12-28 00:50:00,24.3,17.8,30.37,SW,225,0.0,0.0,76,0.00,,,0.00,pywws,2013-12-28 05:50:00,
2013-12-28 00:55:00,24.3,17.8,30.36,SW,225,0.0,0.0,76,0.00,,,0.00,pywws,2013-12-28 05:55:00,
2013-12-28 01:00:00,23.9,17.5,30.36,SW,225,0.0,0.0,76,0.00,,,0.00,pywws,2013-12-28 06:00:00,
2013-12-28 01:05:00,23.9,17.5,30.36,SW,225,0.0,0.0,76,0.00,,,0.00,pywws,2013-12-28 06:05:00,
2013-12-28 01:10:00,23.4,16.9,30.36,SW,225,0.0,0.0,76,0.00,,,0.00,pywws,2013-12-28 06:10:00,
2013-12-28 01:15:00,23.4,17.2,30.36,South,180,0.0,0.7,77,0.00,,,0.00,pywws,2013-12-28 06:15:00,
2013-12-28 01:20:00,23.4,17.2,30.36,South,180,0.0,0.0,77,0.00,,,0.00,pywws,2013-12-28 06:20:00,
2013-12-28 01:25:00,23.4,17.2,30.36,SW,225,0.7,1.6,77,0.00,,,0.00,pywws,2013-12-28 06:25:00,
2013-12-28 01:30:00,23.5,17.4,30.36,SW,225,0.0,0.0,77,0.00,,,0.00,pywws,2013-12-28 06:30:00,
2013-12-28 01:35:00,23.4,17.2,30.35,SW,225,0.0,0.0,77,0.00,,,0.00,pywws,2013-12-28 06:35:00,
2013-12-28 01:40:00,23.4,17.2,30.35,SW,225,0.0,0.0,77,0.00,,,0.00,pywws,2013-12-28 06:40:00,
2013-12-28 01:45:00,23.4,17.5,30.36,SW,225,0.0,0.7,78,0.00,,,0.00,pywws,2013-12-28 06:45:00,
2013-12-28 01:50:00,23.5,17.7,30.36,South,180,0.0,0.7,78,0.00,,,0.00,pywws,2013-12-28 06:50:00,
2013-12-28 01:55:00,23.7,17.9,30.36,SW,225,2.2,2.2,78,0.00,,,0.00,pywws,2013-12-28 06:55:00,
2013-12-28 02:00:00,23.9,18.4,30.35,SW,225,0.0,0.0,79,0.00,,,0.00,pywws,2013-12-28 07:00:00,
2013-12-28 02:05:00,23.5,17.7,30.36,SW,225,0.0,0.0,78,0.00,,,0.00,pywws,2013-12-28 07:05:00,
2013-12-28 02:10:00,23.0,17.2,30.35,SW,225,0.7,1.6,78,0.00,,,0.00,pywws,2013-12-28 07:10:00,
2013-12-28 02:15:00,23.0,17.2,30.35,SW,225,0.0,0.7,78,0.00,,,0.00,pywws,2013-12-28 07:15:00,
2013-12-28 02:20:00,23.2,17.7,30.35,SW,225,0.0,0.7,79,0.00,,,0.00,pywws,2013-12-28 07:20:00,
2013-12-28 02:25:00,23.4,17.8,30.35,NE,45,0.0,0.7,79,0.00,,,0.00,pywws,2013-12-28 07:25:00,
2013-12-28 02:30:00,23.0,17.5,30.36,NE,45,0.0,0.0,79,0.00,,,0.00,pywws,2013-12-28 07:30:00,
2013-12-28 02:35:00,22.6,17.4,30.35,NE,45,0.0,0.0,80,0.00,,,0.00,pywws,2013-12-28 07:35:00,
2013-12-28 02:40:00,22.3,17.1,30.35,NE,45,0.0,0.7,80,0.00,,,0.00,pywws,2013-12-28 07:40:00,
2013-12-28 02:45:00,22.1,16.9,30.35,NE,45,0.0,0.0,80,0.00,,,0.00,pywws,2013-12-28 07:45:00,
2013-12-28 02:50:00,21.9,16.7,30.35,SW,225,0.7,1.6,80,0.00,,,0.00,pywws,2013-12-28 07:50:00,
2013-12-28 02:55:00,22.3,17.4,30.35,West,270,0.0,0.7,81,0.00,,,0.00,pywws,2013-12-28 07:55:00,
2013-12-28 03:00:00,22.1,17.2,30.35,West,270,0.0,0.0,81,0.00,,,0.00,pywws,2013-12-28 08:00:00,
2013-12-28 03:05:00,22.1,17.2,30.35,West,270,0.0,0.0,81,0.00,,,0.00,pywws,2013-12-28 08:05:00,
2013-12-28 03:10:00,21.7,16.8,30.34,West,270,0.0,0.0,81,0.00,,,0.00,pywws,2013-12-28 08:10:00,
2013-12-28 03:15:00,21.6,16.6,30.34,West,270,0.0,0.0,81,0.00,,,0.00,pywws,2013-12-28 08:15:00,
2013-12-28 03:20:00,21.4,16.5,30.34,South,180,0.7,1.6,81,0.00,,,0.00,pywws,2013-12-28 08:20:00,
2013-12-28 03:25:00,21.6,16.6,30.35,SW,225,0.0,0.0,81,0.00,,,0.00,pywws,2013-12-28 08:25:00,
2013-12-28 03:30:00,21.4,16.5,30.34,SW,225,0.0,0.0,81,0.00,,,0.00,pywws,2013-12-28 08:30:00,
2013-12-28 03:35:00,21.2,16.3,30.34,SW,225,0.0,0.7,81,0.00,,,0.00,pywws,2013-12-28 08:35:00,
2013-12-28 03:40:00,21.2,16.3,30.34,SW,225,0.0,0.7,81,0.00,,,0.00,pywws,2013-12-28 08:40:00,
2013-12-28 03:45:00,21.4,16.5,30.34,SW,225,0.0,0.7,81,0.00,,,0.00,pywws,2013-12-28 08:45:00,
2013-12-28 03:50:00,21.4,16.8,30.34,SW,225,0.0,0.0,82,0.00,,,0.00,pywws,2013-12-28 08:50:00,
2013-12-28 03:55:00,21.4,16.5,30.34,SW,225,0.7,0.7,81,0.00,,,0.00,pywws,2013-12-28 08:55:00,
2013-12-28 04:00:00,21.6,16.9,30.34,SW,225,0.0,0.0,82,0.00,,,0.00,pywws,2013-12-28 09:00:00,
2013-12-28 04:05:00,21.6,16.9,30.34,West,270,0.0,0.7,82,0.00,,,0.00,pywws,2013-12-28 09:05:00,
2013-12-28 04:10:00,21.7,17.1,30.34,South,180,0.0,0.0,82,0.00,,,0.00,pywws,2013-12-28 09:10:00,
2013-12-28 04:15:00,21.7,17.1,30.34,SW,225,0.0,1.6,82,0.00,,,0.00,pywws,2013-12-28 09:15:00,
2013-12-28 04:20:00,21.9,17.3,30.34,SW,225,0.0,0.0,82,0.00,,,0.00,pywws,2013-12-28 09:20:00,
2013-12-28 04:25:00,21.7,17.4,30.34,NE,45,0.7,0.7,83,0.00,,,0.00,pywws,2013-12-28 09:25:00,
2013-12-28 04:30:00,21.4,17.0,30.34,NE,45,0.0,0.0,83,0.00,,,0.00,pywws,2013-12-28 09:30:00,
2013-12-28 04:35:00,21.4,17.0,30.34,South,180,0.0,0.0,83,0.00,,,0.00,pywws,2013-12-28 09:35:00,
2013-12-28 04:40:00,21.2,16.6,30.34,South,180,0.0,0.0,82,0.00,,,0.00,pywws,2013-12-28 09:40:00,
2013-12-28 04:45:00,20.8,16.5,30.34,South,180,0.0,0.0,83,0.00,,,0.00,pywws,2013-12-28 09:45:00,
2013-12-28 04:50:00,21.2,16.6,30.34,South,180,0.7,1.6,82,0.00,,,0.00,pywws,2013-12-28 09:50:00,
2013-12-28 04:55:00,21.4,17.0,30.34,West,270,0.0,0.0,83,0.00,,,0.00,pywws,2013-12-28 09:55:00,
2013-12-28 05:00:00,21.2,16.9,30.34,West,270,0.0,0.7,83,0.00,,,0.00,pywws,2013-12-28 10:00:00,
2013-12-28 05:05:00,21.2,16.9,30.34,West,270,0.0,0.7,83,0.00,,,0.00,pywws,2013-12-28 10:05:00,
2013-12-28 05:10:00,20.7,16.3,30.34,NE,45,0.0,0.0,83,0.00,,,0.00,pywws,2013-12-28 10:10:00,
2013-12-28 05:15:00,20.7,16.3,30.34,South,180,0.0,0.0,83,0.00,,,0.00,pywws,2013-12-28 10:15:00,
2013-12-28 05:20:00,20.8,16.8,30.34,SW,225,0.0,0.7,84,0.00,,,0.00,pywws,2013-12-28 10:20:00,
2013-12-28 05:25:00,21.0,17.0,30.35,SW,225,0.0,0.7,84,0.00,,,0.00,pywws,2013-12-28 10:25:00,
2013-12-28 05:30:00,21.0,17.0,30.35,East,90,0.0,0.7,84,0.00,,,0.00,pywws,2013-12-28 10:30:00,
2013-12-28 05:35:00,20.8,16.8,30.35,East,90,0.0,0.0,84,0.00,,,0.00,pywws,2013-12-28 10:35:00,
2013-12-28 05:40:00,20.7,16.6,30.35,SW,225,0.0,1.6,84,0.00,,,0.00,pywws,2013-12-28 10:40:00,
2013-12-28 05:45:00,20.8,16.8,30.35,South,180,0.0,0.7,84,0.00,,,0.00,pywws,2013-12-28 10:45:00,
2013-12-28 05:50:00,21.0,17.0,30.35,SW,225,0.0,0.0,84,0.00,,,0.00,pywws,2013-12-28 10:50:00,
2013-12-28 05:55:00,21.0,17.0,30.35,SW,225,0.0,0.0,84,0.00,,,0.00,pywws,2013-12-28 10:55:00,
2013-12-28 06:00:00,21.0,17.0,30.35,SW,225,0.0,0.0,84,0.00,,,0.00,pywws,2013-12-28 11:00:00,
2013-12-28 06:05:00,21.0,17.0,30.35,SW,225,0.0,0.0,84,0.00,,,0.00,pywws,2013-12-28 11:05:00,
2013-12-28 06:10:00,21.2,16.9,30.35,SW,225,0.0,0.0,83,0.00,,,0.00,pywws,2013-12-28 11:10:00,
2013-12-28 06:15:00,21.4,17.3,30.35,SW,225,0.0,0.0,84,0.00,,,0.00,pywws,2013-12-28 11:15:00,
2013-12-28 06:20:00,21.6,17.5,30.35,SW,225,0.0,0.0,84,0.00,,,0.00,pywws,2013-12-28 11:20:00,
2013-12-28 06:25:00,21.7,17.7,30.36,SW,225,0.0,0.0,84,0.00,,,0.00,pywws,2013-12-28 11:25:00,
2013-12-28 06:30:00,21.9,17.8,30.36,SW,225,0.0,0.0,84,0.00,,,0.00,pywws,2013-12-28 11:30:00,
2013-12-28 06:35:00,21.9,17.8,30.35,NE,45,0.7,0.7,84,0.00,,,0.00,pywws,2013-12-28 11:35:00,
2013-12-28 06:40:00,22.1,18.0,30.35,NE,45,0.0,0.0,84,0.00,,,0.00,pywws,2013-12-28 11:40:00,
2013-12-28 06:45:00,21.9,17.8,30.35,NE,45,0.0,0.0,84,0.00,,,0.00,pywws,2013-12-28 11:45:00,
2013-12-28 06:50:00,22.1,18.0,30.35,NE,45,0.0,0.0,84,0.00,,,0.00,pywws,2013-12-28 11:50:00,
2013-12-28 06:55:00,21.9,17.8,30.35,NE,45,0.0,0.0,84,0.00,,,0.00,pywws,2013-12-28 11:55:00,
2013-12-28 07:00:00,21.9,17.8,30.34,NE,45,0.0,0.0,84,0.00,,,0.00,pywws,2013-12-28 12:00:00,
2013-12-28 07:05:00,21.9,17.8,30.34,NE,45,0.0,0.0,84,0.00,,,0.00,pywws,2013-12-28 12:05:00,
2013-12-28 07:10:00,21.9,17.8,30.34,South,180,0.0,0.7,84,0.00,,,0.00,pywws,2013-12-28 12:10:00,
2013-12-28 07:15:00,21.9,17.8,30.35,South,180,0.0,0.0,84,0.00,,,0.00,pywws,2013-12-28 12:15:00,
2013-12-28 07:20:00,21.9,17.8,30.34,South,180,0.7,1.6,84,0.00,,,0.00,pywws,2013-12-28 12:20:00,
2013-12-28 07:25:00,22.1,18.0,30.34,South,180,0.0,0.0,84,0.00,,,0.00,pywws,2013-12-28 12:25:00,
2013-12-28 07:30:00,21.9,17.8,30.34,South,180,0.0,0.0,84,0.00,,,0.00,pywws,2013-12-28 12:30:00,
2013-12-28 07:35:00,21.9,17.8,30.34,South,180,0.0,0.0,84,0.00,,,0.00,pywws,2013-12-28 12:35:00,
2013-12-28 07:40:00,21.9,17.8,30.34,South,180,0.0,0.0,84,0.00,,,0.00,pywws,2013-12-28 12:40:00,
2013-12-28 07:45:00,21.9,17.8,30.34,South,180,0.0,0.0,84,0.00,,,0.00,pywws,2013-12-28 12:45:00,
2013-12-28 07:50:00,22.1,18.0,30.34,South,180,0.0,0.0,84,0.00,,,0.00,pywws,2013-12-28 12:50:00,
2013-12-28 07:55:00,22.5,18.4,30.35,South,180,0.0,0.0,84,0.00,,,0.00,pywws,2013-12-28 12:55:00,
2013-12-28 08:00:00,22.8,18.7,30.34,South,180,0.0,0.0,84,0.00,,,0.00,pywws,2013-12-28 13:00:00,
2013-12-28 08:05:00,23.2,18.8,30.34,South,180,0.0,0.0,83,0.00,,,0.00,pywws,2013-12-28 13:05:00,
2013-12-28 08:10:00,23.7,19.3,30.35,South,180,0.0,0.0,83,0.00,,,0.00,pywws,2013-12-28 13:10:00,
2013-12-28 08:15:00,25.3,20.9,30.34,NE,45,0.0,0.0,83,0.00,,,0.00,pywws,2013-12-28 13:15:00,
2013-12-28 08:20:00,26.6,21.9,30.34,NE,45,0.0,0.0,82,0.00,,,0.00,pywws,2013-12-28 13:20:00,
2013-12-28 08:25:00,29.3,25.9,30.34,NE,45,0.0,0.0,87,0.00,,,0.00,pywws,2013-12-28 13:25:00,
2013-12-28 08:30:00,31.6,27.7,30.34,SE,135,0.0,0.7,85,0.00,,,0.00,pywws,2013-12-28 13:30:00,
2013-12-28 08:35:00,32.4,27.8,30.35,SE,135,0.0,0.0,83,0.00,,,0.00,pywws,2013-12-28 13:35:00,
2013-12-28 08:40:00,34.5,28.7,30.35,SE,135,0.0,0.7,79,0.00,,,0.00,pywws,2013-12-28 13:40:00,
2013-12-28 08:45:00,35.1,27.6,30.35,East,90,0.7,1.6,74,0.00,,,0.00,pywws,2013-12-28 13:45:00,
2013-12-28 08:50:00,34.9,26.1,30.35,NE,45,0.7,1.6,70,0.00,,,0.00,pywws,2013-12-28 13:50:00,
2013-12-28 08:55:00,33.8,23.7,30.34,NE,45,0.7,2.2,66,0.00,,,0.00,pywws,2013-12-28 13:55:00,
2013-12-28 09:00:00,32.9,23.2,30.35,NE,45,0.7,1.6,67,0.00,,,0.00,pywws,2013-12-28 14:00:00,
2013-12-28 09:05:00,32.9,23.2,30.34,NE,45,0.7,1.6,67,0.00,,,0.00,pywws,2013-12-28 14:05:00,
2013-12-28 09:10:00,31.5,22.8,30.35,NE,45,0.7,1.6,70,0.00,,,0.00,pywws,2013-12-28 14:10:00,
2013-12-28 09:15:00,31.3,23.0,30.34,NE,45,0.0,0.0,71,0.00,,,0.00,pywws,2013-12-28 14:15:00,
2013-12-28 09:20:00,32.5,24.9,30.35,NE,45,0.0,0.0,73,0.00,,,0.00,pywws,2013-12-28 14:20:00,
2013-12-28 09:25:00,34.2,26.1,30.36,NE,45,0.0,1.6,72,0.00,,,0.00,pywws,2013-12-28 14:25:00,
2013-12-28 09:30:00,36.3,27.1,30.36,South,180,0.0,1.6,69,0.00,,,0.00,pywws,2013-12-28 14:30:00,
2013-12-28 09:35:00,37.6,29.0,30.36,East,90,1.6,2.2,71,0.00,,,0.00,pywws,2013-12-28 14:35:00,
2013-12-28 09:40:00,38.1,28.9,30.36,East,90,0.7,1.6,69,0.00,,,0.00,pywws,2013-12-28 14:40:00,
2013-12-28 09:45:00,38.1,28.5,30.36,East,90,0.7,2.2,68,0.00,,,0.00,pywws,2013-12-28 14:45:00,
2013-12-28 09:50:00,37.8,27.8,30.36,East,90,0.7,1.6,67,0.00,,,0.00,pywws,2013-12-28 14:50:00,
2013-12-28 09:55:00,37.6,27.6,30.36,NE,45,1.6,2.2,67,0.00,,,0.00,pywws,2013-12-28 14:55:00,
2013-12-28 10:00:00,37.2,25.8,30.36,East,90,1.6,2.2,63,0.00,,,0.00,pywws,2013-12-28 15:00:00,
2013-12-28 10:05:00,37.6,27.6,30.36,East,90,1.6,2.2,67,0.00,,,0.00,pywws,2013-12-28 15:05:00,
2013-12-28 10:10:00,38.7,27.9,30.36,ESE,112,1.6,2.2,65,0.00,,,0.00,pywws,2013-12-28 15:10:00,
2013-12-28 10:15:00,39.4,27.8,30.36,East,90,2.2,4.5,63,0.00,,,0.00,pywws,2013-12-28 15:15:00,
2013-12-28 10:20:00,39.4,28.2,30.35,East,90,0.7,3.8,64,0.00,,,0.00,pywws,2013-12-28 15:20:00,
2013-12-28 10:25:00,39.2,27.7,30.35,SE,135,2.2,3.8,63,0.00,,,0.00,pywws,2013-12-28 15:25:00,
2013-12-28 10:30:00,39.0,27.9,30.35,SW,225,2.2,4.5,64,0.00,,,0.00,pywws,2013-12-28 15:30:00,
2013-12-28 10:35:00,38.5,26.2,30.35,South,180,2.2,3.8,61,0.00,,,0.00,pywws,2013-12-28 15:35:00,
2013-12-28 10:40:00,38.5,27.0,30.35,East,90,0.7,1.6,63,0.00,,,0.00,pywws,2013-12-28 15:40:00,
2013-12-28 10:45:00,38.8,27.3,30.35,SW,225,0.7,1.6,63,0.00,,,0.00,pywws,2013-12-28 15:45:00,
2013-12-28 10:50:00,39.4,27.5,30.35,South,180,0.7,1.6,62,0.00,,,0.00,pywws,2013-12-28 15:50:00,
2013-12-28 10:55:00,39.6,26.8,30.35,SE,135,1.6,3.8,60,0.00,,,0.00,pywws,2013-12-28 15:55:00,
2013-12-28 11:00:00,39.9,26.8,30.34,SE,135,1.6,3.1,59,0.00,,,0.00,pywws,2013-12-28 16:00:00,
2013-12-28 11:05:00,40.6,27.4,30.33,South,180,0.7,2.2,59,0.00,,,0.00,pywws,2013-12-28 16:05:00,
2013-12-28 11:10:00,41.5,27.0,30.34,South,180,3.1,5.4,56,0.00,,,0.00,pywws,2013-12-28 16:10:00,
2013-12-28 11:15:00,41.5,26.1,30.33,West,270,2.2,3.8,54,0.00,,,0.00,pywws,2013-12-28 16:15:00,
2013-12-28 11:20:00,41.7,26.8,30.32,South,180,2.2,4.5,55,0.00,,,0.00,pywws,2013-12-28 16:20:00,
2013-12-28 11:25:00,42.1,26.6,30.32,SW,225,1.6,2.2,54,0.00,,,0.00,pywws,2013-12-28 16:25:00,
2013-12-28 11:30:00,42.1,26.6,30.32,SE,135,2.2,3.8,54,0.00,,,0.00,pywws,2013-12-28 16:30:00,
2013-12-28 11:35:00,42.4,27.0,30.32,NW,315,3.8,7.6,54,0.00,,,0.00,pywws,2013-12-28 16:35:00,
2013-12-28 11:40:00,42.6,26.7,30.32,NE,45,1.6,3.1,53,0.00,,,0.00,pywws,2013-12-28 16:40:00,
2013-12-28 11:45:00,43.0,26.6,30.31,East,90,0.7,1.6,52,0.00,,,0.00,pywws,2013-12-28 16:45:00,
2013-12-28 11:50:00,43.5,26.6,30.30,South,180,3.1,5.4,51,0.00,,,0.00,pywws,2013-12-28 16:50:00,
2013-12-28 11:55:00,43.5,26.6,30.30,South,180,4.5,6.0,51,0.00,,,0.00,pywws,2013-12-28 16:55:00,
2013-12-28 12:00:00,43.7,25.8,30.29,SE,135,1.6,3.1,49,0.00,,,0.00,pywws,2013-12-28 17:00:00,
2013-12-28 12:05:00,43.9,26.0,30.29,East,90,2.2,3.1,49,0.00,,,0.00,pywws,2013-12-28 17:05:00,
2013-12-28 12:10:00,44.4,26.5,30.29,South,180,3.1,5.4,49,0.00,,,0.00,pywws,2013-12-28 17:10:00,
2013-12-28 12:15:00,44.1,25.6,30.29,SW,225,1.6,2.2,48,0.00,,,0.00,pywws,2013-12-28 17:15:00,
2013-12-28 12:20:00,44.2,26.3,30.28,East,90,1.6,2.2,49,0.00,,,0.00,pywws,2013-12-28 17:20:00,
2013-12-28 12:25:00,44.6,25.6,30.29,NE,45,3.1,4.5,47,0.00,,,0.00,pywws,2013-12-28 17:25:00,
2013-12-28 12:30:00,44.8,26.3,30.29,SE,135,0.7,2.2,48,0.00,,,0.00,pywws,2013-12-28 17:30:00,
2013-12-28 12:35:00,45.1,26.6,30.29,SE,135,0.7,2.2,48,0.00,,,0.00,pywws,2013-12-28 17:35:00,
2013-12-28 12:40:00,45.3,26.8,30.28,WSW,248,1.6,1.6,48,0.00,,,0.00,pywws,2013-12-28 17:40:00,
2013-12-28 12:45:00,45.5,26.5,30.29,East,90,0.7,1.6,47,0.00,,,0.00,pywws,2013-12-28 17:45:00,
2013-12-28 12:50:00,45.3,25.8,30.29,East,90,1.6,3.1,46,0.00,,,0.00,pywws,2013-12-28 17:50:00,
2013-12-28 12:55:00,45.0,25.4,30.28,East,90,3.1,4.5,46,0.00,,,0.00,pywws,2013-12-28 17:55:00,
2013-12-28 13:00:00,45.0,26.0,30.28,West,270,0.7,2.2,47,0.00,,,0.00,pywws,2013-12-28 18:00:00,
2013-12-28 13:05:00,45.1,26.1,30.28,East,90,2.2,5.4,47,0.00,,,0.00,pywws,2013-12-28 18:05:00,
2013-12-28 13:10:00,45.1,26.1,30.28,South,180,1.6,3.1,47,0.00,,,0.00,pywws,2013-12-28 18:10:00,
2013-12-28 13:15:00,45.1,26.6,30.28,SE,135,1.6,3.8,48,0.00,,,0.00,pywws,2013-12-28 18:15:00,
2013-12-28 13:20:00,45.1,26.6,30.27,SE,135,1.6,3.8,48,0.00,,,0.00,pywws,2013-12-28 18:20:00,
2013-12-28 13:25:00,45.3,27.3,30.27,North,0,2.2,6.0,49,0.00,,,0.00,pywws,2013-12-28 18:25:00,
2013-12-28 13:30:00,45.3,26.8,30.27,SE,135,6.9,8.3,48,0.00,,,0.00,pywws,2013-12-28 18:30:00,
2013-12-28 13:35:00,45.3,26.8,30.27,South,180,3.1,4.5,48,0.00,,,0.00,pywws,2013-12-28 18:35:00,
2013-12-28 13:40:00,45.1,26.6,30.27,South,180,3.8,6.9,48,0.00,,,0.00,pywws,2013-12-28 18:40:00,
2013-12-28 13:45:00,45.3,26.8,30.27,South,180,5.4,8.3,48,0.00,,,0.00,pywws,2013-12-28 18:45:00,
2013-12-28 13:50:00,45.3,27.3,30.27,East,90,3.1,5.4,49,0.00,,,0.00,pywws,2013-12-28 18:50:00,
2013-12-28 13:55:00,45.5,27.5,30.26,East,90,3.1,4.5,49,0.00,,,0.00,pywws,2013-12-28 18:55:00,
2013-12-28 14:00:00,45.7,27.1,30.26,East,90,0.7,3.1,48,0.00,,,0.00,pywws,2013-12-28 19:00:00,
2013-12-28 14:05:00,45.9,27.3,30.26,SW,225,4.5,6.0,48,0.00,,,0.00,pywws,2013-12-28 19:05:00,
2013-12-28 14:10:00,46.0,27.5,30.26,West,270,1.6,3.8,48,0.00,,,0.00,pywws,2013-12-28 19:10:00,
2013-12-28 14:15:00,45.9,26.8,30.26,NE,45,0.0,0.7,47,0.00,,,0.00,pywws,2013-12-28 19:15:00,
2013-12-28 14:20:00,46.0,26.9,30.25,SW,225,1.6,2.2,47,0.00,,,0.00,pywws,2013-12-28 19:20:00,
2013-12-28 14:25:00,46.6,28.0,30.25,South,180,2.2,3.8,48,0.00,,,0.00,pywws,2013-12-28 19:25:00,
2013-12-28 14:30:00,46.6,27.4,30.25,WSW,248,1.6,3.1,47,0.00,,,0.00,pywws,2013-12-28 19:30:00,
2013-12-28 14:35:00,46.6,26.9,30.25,SE,135,2.2,3.8,46,0.00,,,0.00,pywws,2013-12-28 19:35:00,
2013-12-28 14:40:00,46.6,26.4,30.25,SW,225,1.6,3.1,45,0.00,,,0.00,pywws,2013-12-28 19:40:00,
2013-12-28 14:45:00,46.8,26.6,30.25,South,180,1.6,3.1,45,0.00,,,0.00,pywws,2013-12-28 19:45:00,
2013-12-28 14:50:00,46.9,27.3,30.25,South,180,1.6,3.1,46,0.00,,,0.00,pywws,2013-12-28 19:50:00,
2013-12-28 14:55:00,47.3,28.1,30.25,West,270,0.7,1.6,47,0.00,,,0.00,pywws,2013-12-28 19:55:00,
2013-12-28 15:00:00,47.1,26.9,30.25,North,0,0.0,0.0,45,0.00,,,0.00,pywws,2013-12-28 20:00:00,
2013-12-28 15:05:00,47.1,27.9,30.25,SE,135,0.0,0.7,47,0.00,,,0.00,pywws,2013-12-28 20:05:00,
2013-12-28 15:10:00,47.1,27.9,30.25,West,270,1.6,2.2,47,0.00,,,0.00,pywws,2013-12-28 20:10:00,
2013-12-28 15:15:00,46.9,27.8,30.25,North,0,0.7,1.6,47,0.00,,,0.00,pywws,2013-12-28 20:15:00,
2013-12-28 15:20:00,46.4,28.3,30.25,East,90,0.7,2.2,49,0.00,,,0.00,pywws,2013-12-28 20:20:00,
2013-12-28 15:25:00,45.9,29.2,30.25,North,0,0.0,0.0,52,0.00,,,0.00,pywws,2013-12-28 20:25:00,
2013-12-28 15:30:00,45.0,29.8,30.26,NE,45,0.7,1.6,55,0.00,,,0.00,pywws,2013-12-28 20:30:00,
2013-12-28 15:35:00,44.2,32.1,30.26,East,90,1.6,2.2,62,0.00,,,0.00,pywws,2013-12-28 20:35:00,
2013-12-28 15:40:00,43.9,32.1,30.26,SW,225,1.6,2.2,63,0.00,,,0.00,pywws,2013-12-28 20:40:00,
2013-12-28 15:45:00,43.3,32.0,30.26,South,180,1.6,3.1,64,0.00,,,0.00,pywws,2013-12-28 20:45:00,
2013-12-28 15:50:00,42.8,31.9,30.27,East,90,0.7,0.7,65,0.01,,,0.01,pywws,2013-12-28 20:50:00,
2013-12-28 15:55:00,42.3,32.5,30.27,ENE,68,0.7,1.6,68,0.01,,,0.01,pywws,2013-12-28 20:55:00,
2013-12-28 16:00:00,41.7,33.0,30.27,North,0,0.7,1.6,71,0.01,,,0.01,pywws,2013-12-28 21:00:00,
2013-12-28 16:05:00,41.2,33.5,30.27,SE,135,0.0,1.6,74,0.01,,,0.01,pywws,2013-12-28 21:05:00,
2013-12-28 16:10:00,41.0,34.0,30.27,SW,225,1.6,2.2,76,0.02,,,0.02,pywws,2013-12-28 21:10:00,
2013-12-28 16:15:00,40.6,34.6,30.27,SE,135,2.2,3.1,79,0.02,,,0.02,pywws,2013-12-28 21:15:00,
2013-12-28 16:20:00,40.3,35.2,30.26,North,0,0.7,1.6,82,0.04,,,0.04,pywws,2013-12-28 21:20:00,
2013-12-28 16:25:00,40.1,35.7,30.26,SW,225,3.1,3.1,84,0.04,,,0.04,pywws,2013-12-28 21:25:00,
2013-12-28 16:30:00,39.9,35.8,30.26,NE,45,0.7,1.6,85,0.04,,,0.04,pywws,2013-12-28 21:30:00,
2013-12-28 16:35:00,39.7,35.6,30.25,East,90,0.0,0.0,85,0.05,,,0.05,pywws,2013-12-28 21:35:00,
2013-12-28 16:40:00,39.6,35.4,30.25,SW,225,1.6,2.2,85,0.05,,,0.05,pywws,2013-12-28 21:40:00,
2013-12-28 16:45:00,39.4,35.5,30.25,NE,45,0.7,2.2,86,0.06,,,0.06,pywws,2013-12-28 21:45:00,
2013-12-28 16:50:00,39.4,35.5,30.25,NE,45,0.0,0.7,86,0.05,,,0.06,pywws,2013-12-28 21:50:00,
2013-12-28 16:55:00,39.4,35.8,30.25,SW,225,0.7,2.2,87,0.05,,,0.06,pywws,2013-12-28 21:55:00,
2013-12-28 17:00:00,39.4,35.8,30.24,SW,225,0.0,0.0,87,0.05,,,0.06,pywws,2013-12-28 22:00:00,
2013-12-28 17:03:00,39.4,35.8,30.24,SW,225,0.7,1.6,87,0.06,,,0.07,pywws,2013-12-28 22:03:00,
2013-12-28 17:05:00,39.4,35.8,30.24,West,270,1.6,2.2,87,0.06,,,0.07,pywws,2013-12-28 22:05:00,
2013-12-28 17:10:00,39.4,36.1,30.24,South,180,1.6,3.1,88,0.05,,,0.07,pywws,2013-12-28 22:10:00,
2013-12-28 17:15:00,39.4,36.1,30.24,NE,45,0.0,0.0,88,0.06,,,0.08,pywws,2013-12-28 22:15:00,
2013-12-28 17:20:00,39.4,36.1,30.23,NE,45,0.0,0.0,88,0.05,,,0.08,pywws,2013-12-28 22:20:00,
2013-12-28 17:30:00,39.2,36.2,30.23,West,270,0.0,0.7,89,0.06,,,0.09,pywws,2013-12-28 22:30:00,
2013-12-28 17:36:00,39.0,36.3,30.23,SW,225,1.6,2.2,90,0.05,,,0.09,pywws,2013-12-28 22:36:00,
2013-12-28 17:41:00,38.8,36.2,30.23,West,270,0.7,1.6,90,0.05,,,0.09,pywws,2013-12-28 22:41:00,
2013-12-28 17:47:00,38.7,36.0,30.22,West,270,2.2,3.8,90,0.04,,,0.09,pywws,2013-12-28 22:47:00,
2013-12-28 17:53:00,38.5,35.8,30.22,SW,225,2.2,3.1,90,0.05,,,0.11,pywws,2013-12-28 22:53:00,
2013-12-28 17:58:00,38.5,35.8,30.22,West,270,0.7,0.7,90,0.05,,,0.11,pywws,2013-12-28 22:58:00,
2013-12-28 18:04:00,38.3,35.6,30.21,SE,135,0.0,0.0,90,0.04,,,0.11,pywws,2013-12-28 23:04:00,
2013-12-28 18:09:00,38.3,35.6,30.20,South,180,1.6,3.1,90,0.05,,,0.12,pywws,2013-12-28 23:09:00,
2013-12-28 18:15:00,38.3,35.6,30.19,East,90,0.0,0.0,90,0.04,,,0.12,pywws,2013-12-28 23:15:00,
2013-12-28 18:21:00,38.1,35.5,30.18,South,180,3.1,3.8,90,0.04,,,0.12,pywws,2013-12-28 23:21:00,
2013-12-28 18:26:00,38.3,35.6,30.18,SW,225,0.7,1.6,90,0.02,,,0.12,pywws,2013-12-28 23:26:00,
2013-12-28 18:32:00,38.3,35.6,30.17,South,180,0.0,0.7,90,0.02,,,0.12,pywws,2013-12-28 23:32:00,
2013-12-28 18:37:00,38.5,35.8,30.18,South,180,0.7,1.6,90,0.02,,,0.12,pywws,2013-12-28 23:37:00,
2013-12-28 18:43:00,38.5,35.8,30.18,NE,45,0.7,2.2,90,0.02,,,0.12,pywws,2013-12-28 23:43:00,
2013-12-28 18:49:00,38.5,35.8,30.18,East,90,0.7,1.6,90,0.01,,,0.12,pywws,2013-12-28 23:49:00,
2013-12-28 18:55:00,38.3,35.6,30.18,East,90,0.0,0.0,90,0.01,,,0.12,pywws,2013-12-28 23:55:00,
2013-12-28 19:01:00,38.3,35.9,30.17,East,90,0.0,0.0,91,0.01,,,0.12,pywws,2013-12-29 00:01:00,
2013-12-28 19:07:00,38.3,35.9,30.17,East,90,0.0,0.0,91,0.01,,,0.12,pywws,2013-12-29 00:07:00,
2013-12-28 19:13:00,38.7,36.3,30.17,East,90,0.0,0.7,91,0.00,,,0.12,pywws,2013-12-29 00:13:00,
2013-12-28 19:18:00,38.5,36.1,30.18,East,90,0.0,0.7,91,0.01,,,0.13,pywws,2013-12-29 00:18:00,
2013-12-28 19:24:00,38.5,36.4,30.18,SE,135,0.0,0.7,92,0.01,,,0.13,pywws,2013-12-29 00:24:00,
2013-12-28 19:29:00,38.7,36.5,30.18,SE,135,1.6,3.1,92,0.01,,,0.13,pywws,2013-12-29 00:29:00,
2013-12-28 19:35:00,38.7,36.5,30.18,South,180,0.0,1.6,92,0.01,,,0.13,pywws,2013-12-29 00:35:00,
2013-12-28 19:41:00,38.8,37.0,30.18,South,180,0.0,1.6,93,0.01,,,0.13,pywws,2013-12-29 00:41:00,
2013-12-28 19:46:00,39.0,37.2,30.17,SE,135,0.0,0.7,93,0.01,,,0.13,pywws,2013-12-29 00:46:00,
2013-12-28 19:52:00,39.0,37.2,30.16,NE,45,0.0,0.7,93,0.01,,,0.13,pywws,2013-12-29 00:52:00,
2013-12-28 19:57:00,39.0,37.2,30.16,North,-999,0.0,13.0,93,5.67,,,5.79,pywws,2013-12-29 00:57:00,
2013-12-28 20:03:00,38.8,37.0,30.16,NE,45,0.0,0.7,93,0.01,,,0.13,pywws,2013-12-29 01:03:00,
2013-12-28 20:09:00,38.8,37.0,30.18,SE,135,0.7,1.6,93,0.01,,,0.13,pywws,2013-12-29 01:09:00,
2013-12-28 20:14:00,39.0,37.2,30.18,WNW,292,2.2,4.5,93,0.01,,,0.13,pywws,2013-12-29 01:14:00,
2013-12-28 20:20:00,39.2,37.1,30.19,SSE,158,1.6,3.1,92,0.00,,,0.13,pywws,2013-12-29 01:20:00,
2013-12-28 20:25:00,39.4,37.5,30.19,East,90,1.6,3.1,93,0.01,,,0.14,pywws,2013-12-29 01:25:00,
2013-12-28 20:31:00,39.4,37.5,30.19,East,90,1.6,2.2,93,0.01,,,0.14,pywws,2013-12-29 01:31:00,
2013-12-28 20:37:00,39.6,38.0,30.18,NE,45,0.7,1.6,94,0.01,,,0.14,pywws,2013-12-29 01:37:00,
2013-12-28 20:42:00,39.7,38.2,30.18,East,90,0.0,0.7,94,0.02,,,0.15,pywws,2013-12-29 01:42:00,
2013-12-28 20:48:00,39.7,38.2,30.18,North,0,1.6,3.1,94,0.04,,,0.17,pywws,2013-12-29 01:48:00,
2013-12-28 20:53:00,39.7,38.2,30.17,NE,45,1.6,2.2,94,0.04,,,0.17,pywws,2013-12-29 01:53:00,
2013-12-28 20:59:00,39.9,38.3,30.16,North,0,0.0,1.6,94,0.04,,,0.17,pywws,2013-12-29 01:59:00,
2013-12-28 21:05:00,39.9,38.3,30.16,North,0,0.0,1.6,94,0.04,,,0.17,pywws,2013-12-29 02:05:00,
2013-12-28 21:10:00,39.7,38.2,30.17,East,90,1.6,2.2,94,0.06,,,0.19,pywws,2013-12-29 02:10:00,
2013-12-28 21:16:00,39.7,38.2,30.16,South,180,1.6,3.1,94,0.06,,,0.19,pywws,2013-12-29 02:16:00,
2013-12-28 21:21:00,39.9,38.3,30.17,SE,135,3.1,4.5,94,0.06,,,0.19,pywws,2013-12-29 02:21:00,
2013-12-28 21:27:00,39.9,38.3,30.17,NW,315,3.1,4.5,94,0.06,,,0.19,pywws,2013-12-29 02:27:00,
2013-12-28 21:33:00,39.9,38.3,30.17,South,180,2.2,4.5,94,0.05,,,0.19,pywws,2013-12-29 02:33:00,
2013-12-28 21:38:00,39.9,38.3,30.17,South,180,4.5,6.9,94,0.06,,,0.20,pywws,2013-12-29 02:38:00,
2013-12-28 21:44:00,39.9,38.1,30.17,SW,225,2.2,4.5,93,0.05,,,0.20,pywws,2013-12-29 02:44:00,
2013-12-28 21:49:00,39.9,37.8,30.16,East,90,3.1,3.8,92,0.04,,,0.20,pywws,2013-12-29 02:49:00,
2013-12-28 21:55:00,39.9,37.5,30.16,South,180,3.8,9.8,91,0.04,,,0.20,pywws,2013-12-29 02:55:00,
2013-12-28 22:01:00,39.9,37.2,30.16,South,180,3.1,6.9,90,0.04,,,0.20,pywws,2013-12-29 03:01:00,
2013-12-28 22:06:00,39.7,37.1,30.15,East,90,3.8,6.9,90,0.04,,,0.20,pywws,2013-12-29 03:06:00,
2013-12-28 22:12:00,39.7,37.1,30.15,East,90,4.5,6.0,90,0.02,,,0.21,pywws,2013-12-29 03:12:00,
2013-12-28 22:17:00,39.7,37.1,30.15,SE,135,5.4,8.3,90,0.02,,,0.21,pywws,2013-12-29 03:17:00,
2013-12-28 22:23:00,39.7,37.1,30.15,SW,225,2.2,5.4,90,0.02,,,0.21,pywws,2013-12-29 03:23:00,
2013-12-28 22:29:00,39.6,36.9,30.14,SW,225,3.8,6.9,90,0.04,,,0.22,pywws,2013-12-29 03:29:00,
2013-12-28 22:34:00,39.6,36.9,30.14,East,90,3.8,7.6,90,0.04,,,0.22,pywws,2013-12-29 03:34:00,
2013-12-28 22:40:00,39.4,37.0,30.14,South,180,3.1,7.6,91,0.02,,,0.22,pywws,2013-12-29 03:40:00,
2013-12-28 22:45:00,39.4,37.0,30.14,South,180,3.8,9.8,91,0.04,,,0.24,pywws,2013-12-29 03:45:00,
2013-12-28 22:51:00,39.4,37.0,30.14,SE,135,2.2,3.8,91,0.04,,,0.24,pywws,2013-12-29 03:51:00,
2013-12-28 22:57:00,39.4,37.3,30.13,SE,135,5.4,7.6,92,0.04,,,0.24,pywws,2013-12-29 03:57:00,
2013-12-28 23:03:00,39.4,37.3,30.13,SE,135,3.8,6.0,92,0.04,,,0.24,pywws,2013-12-29 04:03:00,
2013-12-28 23:09:00,39.6,37.2,30.12,NE,45,1.6,3.1,91,0.05,,,0.25,pywws,2013-12-29 04:09:00,
2013-12-28 23:14:00,39.4,37.0,30.12,SE,135,3.8,6.0,91,0.04,,,0.25,pywws,2013-12-29 04:14:00,
2013-12-28 23:20:00,39.4,37.0,30.11,ESE,112,2.2,4.5,91,0.04,,,0.25,pywws,2013-12-29 04:20:00,
2013-12-28 23:25:00,39.4,37.0,30.11,SE,135,2.2,3.1,91,0.05,,,0.26,pywws,2013-12-29 04:25:00,
2013-12-28 23:31:00,39.2,36.8,30.10,South,180,2.2,3.8,91,0.04,,,0.26,pywws,2013-12-29 04:31:00,
2013-12-28 23:37:00,39.2,37.1,30.09,SE,135,3.8,6.0,92,0.04,,,0.26,pywws,2013-12-29 04:37:00,
2013-12-28 23:42:00,39.2,37.1,30.09,SW,225,4.5,8.3,92,0.02,,,0.26,pywws,2013-12-29 04:42:00,
2013-12-28 23:48:00,39.0,37.2,30.08,SE,135,2.2,6.0,93,0.02,,,0.26,pywws,2013-12-29 04:48:00,
2013-12-28 23:53:00,39.0,37.2,30.08,South,180,3.8,6.0,93,0.02,,,0.26,pywws,2013-12-29 04:53:00,
2013-12-28 23:59:00,39.2,37.1,30.07,SW,225,3.1,6.0,92,0.02,,,0.26,pywws,2013-12-29 04:59:00,